Time;durP1;ratioP1;P1;durP2;ratioP2;P2;SDS_P1;SDS_P2;PMS_P1;PMS_P2;Temp;Humidity;BMP_temperature;BMP_pressure;BME280_temperature;BME280_humidity;BME280_pressure;Samples;Min_cycle;Max_cycle;Signal;HPM_P1;HPM_P2
2023/09/15 00:00:46;;;;;;;5.65;2.13;;;;;;;;;;5066279;28;20072;-62
2023/09/15 00:03:15;;;;;;;3.70;2.08;;;;;;;;;;5082509;28;20044;-62
2023/09/15 00:05:43;;;;;;;6.07;2.53;;;;;;;;;;5077521;28;20060;-62
2023/09/15 00:08:10;;;;;;;6.57;2.30;;;;;;;;;;5082130;28;20478;-62
2023/09/15 00:10:40;;;;;;;4.40;2.33;;;;;;;;;;5070401;28;20059;-64
2023/09/15 00:13:08;;;;;;;4.85;2.30;;;;;;;;;;5089101;28;20044;-63
2023/09/15 00:15:35;;;;;;;6.40;2.20;;;;;;;;;;5085376;28;20059;-64
2023/09/15 00:18:03;;;;;;;9.10;2.55;;;;;;;;;;5085006;28;20113;-62
2023/09/15 00:20:30;;;;;;;5.97;2.40;;;;;;;;;;5084191;28;20079;-63
2023/09/15 00:22:58;;;;;;;4.78;2.45;;;;;;;;;;5087547;28;20131;-63
2023/09/15 00:25:27;;;;;;;7.93;2.47;;;;;;;;;;5087049;28;20141;-63
2023/09/15 00:27:56;;;;;;;4.25;2.15;;;;;;;;;;5087390;28;20422;-62
2023/09/15 00:30:24;;;;;;;4.47;2.28;;;;;;;;;;5083359;28;20059;-62
2023/09/15 00:32:52;;;;;;;4.43;2.10;;;;;;;;;;5071152;28;20056;-63
2023/09/15 00:35:20;;;;;;;4.47;2.35;;;;;;;;;;5085417;28;20055;-62
2023/09/15 00:37:49;;;;;;;5.90;2.25;;;;;;;;;;5089596;28;20506;-63
2023/09/15 00:40:16;;;;;;;7.85;2.63;;;;;;;;;;5081681;28;20487;-63
2023/09/15 00:42:44;;;;;;;7.40;3.10;;;;;;;;;;5087487;28;20068;-64
2023/09/15 00:45:14;;;;;;;7.07;2.40;;;;;;;;;;5092189;28;20060;-62
2023/09/15 00:47:43;;;;;;;6.82;2.30;;;;;;;;;;5078956;28;20051;-63
2023/09/15 00:50:13;;;;;;;4.38;2.03;;;;;;;;;;5085422;28;20057;-63
2023/09/15 00:52:40;;;;;;;6.47;2.58;;;;;;;;;;5085516;28;20044;-62
2023/09/15 00:55:08;;;;;;;12.60;2.47;;;;;;;;;;5082864;28;20052;-63
2023/09/15 00:57:37;;;;;;;6.22;2.25;;;;;;;;;;5066125;28;20051;-62
2023/09/15 01:00:11;;;;;;;7.00;2.33;;;;;;;;;;5090602;28;20040;-63
2023/09/15 01:02:40;;;;;;;7.45;2.67;;;;;;;;;;5082742;28;20056;-63
2023/09/15 01:05:08;;;;;;;8.15;2.30;;;;;;;;;;5085493;28;20568;-62
2023/09/15 01:07:37;;;;;;;4.50;2.40;;;;;;;;;;5083829;28;20048;-62
2023/09/15 01:10:04;;;;;;;6.28;2.03;;;;;;;;;;5088879;28;20052;-62
2023/09/15 01:12:33;;;;;;;11.20;2.63;;;;;;;;;;5064036;28;20406;-62
2023/09/15 01:15:00;;;;;;;7.18;2.30;;;;;;;;;;5090458;28;20462;-64
2023/09/15 01:17:29;;;;;;;5.57;2.30;;;;;;;;;;5088900;28;20420;-62
2023/09/15 01:20:06;;;;;;;6.25;2.83;;;;;;;;;;5088843;28;20040;-63
2023/09/15 01:22:46;;;;;;;6.53;2.25;;;;;;;;;;5080057;28;20048;-65
2023/09/15 01:25:22;;;;;;;5.85;2.13;;;;;;;;;;5086146;28;20051;-62
2023/09/15 01:27:55;;;;;;;6.30;2.45;;;;;;;;;;5087671;28;20506;-62
2023/09/15 01:30:25;;;;;;;5.97;2.40;;;;;;;;;;5083999;28;20399;-63
2023/09/15 01:32:53;;;;;;;5.50;2.50;;;;;;;;;;5086700;28;20063;-64
2023/09/15 01:35:21;;;;;;;9.60;2.33;;;;;;;;;;5083893;28;20556;-64
2023/09/15 01:37:48;;;;;;;5.55;2.47;;;;;;;;;;5085323;28;20059;-62
2023/09/15 01:40:15;;;;;;;5.47;2.40;;;;;;;;;;5085009;28;20040;-63
2023/09/15 01:42:44;;;;;;;9.68;2.50;;;;;;;;;;5088239;28;20052;-63
2023/09/15 01:45:11;;;;;;;6.18;2.50;;;;;;;;;;5079458;28;20110;-62
2023/09/15 01:47:41;;;;;;;7.70;2.72;;;;;;;;;;5088607;28;20054;-62
2023/09/15 01:50:09;;;;;;;5.70;2.47;;;;;;;;;;5083555;28;20407;-64
2023/09/15 01:52:36;;;;;;;4.85;2.20;;;;;;;;;;5090533;28;20059;-62
2023/09/15 01:55:04;;;;;;;6.05;2.30;;;;;;;;;;5082978;28;20051;-62
2023/09/15 01:57:31;;;;;;;6.85;2.28;;;;;;;;;;5089912;28;20119;-62
2023/09/15 01:59:59;;;;;;;7.38;2.50;;;;;;;;;;5083529;28;20044;-63
2023/09/15 02:02:26;;;;;;;6.30;2.60;;;;;;;;;;5084414;28;20101;-62
2023/09/15 02:04:55;;;;;;;6.10;2.50;;;;;;;;;;5076968;28;20103;-63
2023/09/15 02:07:22;;;;;;;6.15;2.50;;;;;;;;;;5075616;28;20075;-63
2023/09/15 02:09:49;;;;;;;6.60;2.83;;;;;;;;;;5083240;28;20090;-62
2023/09/15 02:12:16;;;;;;;7.88;2.25;;;;;;;;;;5078876;28;20049;-62
2023/09/15 02:14:44;;;;;;;7.32;2.53;;;;;;;;;;5083772;28;20067;-62
2023/09/15 02:17:15;;;;;;;4.70;2.17;;;;;;;;;;5086498;28;20061;-62
2023/09/15 02:19:42;;;;;;;6.30;2.30;;;;;;;;;;5080865;28;20079;-62
2023/09/15 02:22:11;;;;;;;4.47;2.17;;;;;;;;;;5087653;28;20066;-62
2023/09/15 02:24:39;;;;;;;5.32;2.50;;;;;;;;;;5088075;28;20117;-62
2023/09/15 02:27:06;;;;;;;8.52;2.63;;;;;;;;;;5076218;28;20659;-62
2023/09/15 02:29:33;;;;;;;5.25;2.22;;;;;;;;;;5085817;28;20494;-62
2023/09/15 02:32:00;;;;;;;5.75;2.55;;;;;;;;;;5090829;28;20044;-62
2023/09/15 02:34:28;;;;;;;5.38;2.40;;;;;;;;;;5081001;28;20044;-62
2023/09/15 02:36:55;;;;;;;7.28;2.83;;;;;;;;;;5079308;28;20048;-64
2023/09/15 02:39:23;;;;;;;5.32;2.55;;;;;;;;;;5084029;28;20051;-64
2023/09/15 02:41:51;;;;;;;6.38;2.55;;;;;;;;;;5068153;28;20048;-62
2023/09/15 02:44:18;;;;;;;5.38;2.40;;;;;;;;;;5087579;28;20135;-63
2023/09/15 02:46:45;;;;;;;5.82;2.55;;;;;;;;;;5087544;28;20056;-62
2023/09/15 02:49:12;;;;;;;6.85;2.60;;;;;;;;;;5071009;28;20506;-62
2023/09/15 02:51:41;;;;;;;8.95;2.60;;;;;;;;;;5083682;28;20096;-63
2023/09/15 02:54:09;;;;;;;4.97;2.50;;;;;;;;;;5080507;28;20113;-63
2023/09/15 02:56:38;;;;;;;7.25;2.70;;;;;;;;;;5085701;28;20101;-62
2023/09/15 02:59:05;;;;;;;4.80;2.45;;;;;;;;;;5090291;28;20047;-62
2023/09/15 03:01:32;;;;;;;5.65;2.60;;;;;;;;;;5074395;28;20048;-64
2023/09/15 03:03:59;;;;;;;5.03;2.55;;;;;;;;;;5079376;28;20048;-62
2023/09/15 03:06:27;;;;;;;6.53;2.65;;;;;;;;;;5078615;28;20551;-64
2023/09/15 03:08:54;;;;;;;5.13;2.50;;;;;;;;;;5089123;28;20067;-62
2023/09/15 03:11:22;;;;;;;4.00;2.38;;;;;;;;;;5078027;28;20518;-63
2023/09/15 03:13:51;;;;;;;5.15;2.20;;;;;;;;;;5076861;28;20052;-62
2023/09/15 03:16:18;;;;;;;5.20;2.72;;;;;;;;;;5086698;28;20048;-63
2023/09/15 03:18:46;;;;;;;6.88;2.50;;;;;;;;;;5087973;28;20570;-62
2023/09/15 03:21:13;;;;;;;5.85;2.50;;;;;;;;;;5081969;28;20043;-62
2023/09/15 03:23:41;;;;;;;7.70;2.78;;;;;;;;;;5087218;28;20048;-62
2023/09/15 03:26:08;;;;;;;6.28;2.47;;;;;;;;;;5088607;28;20055;-62
2023/09/15 03:28:36;;;;;;;10.30;3.00;;;;;;;;;;5087689;28;21313;-62
2023/09/15 03:31:05;;;;;;;8.45;2.75;;;;;;;;;;5094793;28;20051;-62
2023/09/15 03:33:32;;;;;;;7.05;2.60;;;;;;;;;;5080850;28;20055;-62
2023/09/15 03:36:00;;;;;;;10.27;2.88;;;;;;;;;;5083659;28;20055;-62
2023/09/15 03:38:27;;;;;;;6.18;2.72;;;;;;;;;;5085069;28;20182;-63
2023/09/15 03:40:54;;;;;;;7.45;2.58;;;;;;;;;;5085081;28;20481;-62
2023/09/15 03:43:21;;;;;;;5.55;2.42;;;;;;;;;;5087667;28;20051;-62
2023/09/15 03:45:49;;;;;;;8.05;2.97;;;;;;;;;;5085610;28;20099;-62
2023/09/15 03:48:18;;;;;;;7.85;3.03;;;;;;;;;;5085462;28;20127;-62
2023/09/15 03:50:45;;;;;;;6.28;2.67;;;;;;;;;;5088442;28;20173;-62
2023/09/15 03:53:12;;;;;;;7.85;2.92;;;;;;;;;;5070306;28;20052;-63
2023/09/15 03:55:40;;;;;;;6.38;3.05;;;;;;;;;;5088553;28;20052;-62
2023/09/15 03:58:07;;;;;;;11.23;2.75;;;;;;;;;;5086354;28;20126;-62
2023/09/15 04:00:34;;;;;;;8.18;2.95;;;;;;;;;;5089205;28;20044;-63
2023/09/15 04:03:03;;;;;;;6.75;2.80;;;;;;;;;;5083970;28;20057;-63
2023/09/15 04:05:32;;;;;;;6.38;2.88;;;;;;;;;;5089643;28;20459;-62
2023/09/15 04:07:59;;;;;;;5.28;2.72;;;;;;;;;;5090375;28;20052;-62
2023/09/15 04:10:27;;;;;;;7.70;2.97;;;;;;;;;;5089949;28;20506;-62
2023/09/15 04:12:54;;;;;;;7.22;3.15;;;;;;;;;;5087440;28;20428;-62
2023/09/15 04:15:21;;;;;;;5.15;2.75;;;;;;;;;;5084625;28;20044;-62
2023/09/15 04:17:48;;;;;;;6.60;3.08;;;;;;;;;;5088853;28;20048;-63
2023/09/15 04:20:16;;;;;;;6.90;2.65;;;;;;;;;;5083181;28;20048;-63
2023/09/15 04:22:44;;;;;;;7.32;2.88;;;;;;;;;;5074891;28;20055;-63
2023/09/15 04:25:12;;;;;;;9.52;2.75;;;;;;;;;;5090102;28;20059;-62
2023/09/15 04:27:39;;;;;;;7.95;3.00;;;;;;;;;;5087025;28;20063;-63
2023/09/15 04:30:07;;;;;;;7.05;2.97;;;;;;;;;;5084333;28;20515;-63
2023/09/15 04:32:35;;;;;;;7.03;2.80;;;;;;;;;;5086437;28;20040;-63
2023/09/15 04:35:05;;;;;;;6.97;3.00;;;;;;;;;;5085477;28;20054;-62
2023/09/15 04:37:32;;;;;;;5.93;2.72;;;;;;;;;;5084146;28;20041;-62
2023/09/15 04:40:05;;;;;;;6.32;2.78;;;;;;;;;;5085249;28;20049;-62
2023/09/15 04:42:32;;;;;;;6.97;2.85;;;;;;;;;;5077475;28;20105;-62
2023/09/15 04:45:00;;;;;;;5.85;3.10;;;;;;;;;;5087758;28;20052;-62
2023/09/15 04:47:31;;;;;;;7.22;3.15;;;;;;;;;;5087507;28;20074;-62
2023/09/15 04:49:59;;;;;;;6.43;3.15;;;;;;;;;;5082481;28;20051;-63
2023/09/15 04:52:26;;;;;;;5.40;2.70;;;;;;;;;;5083255;28;20052;-62
2023/09/15 04:54:54;;;;;;;8.90;3.25;;;;;;;;;;5087743;28;20054;-63
2023/09/15 04:57:22;;;;;;;6.30;2.95;;;;;;;;;;5090708;28;20058;-62
2023/09/15 04:59:53;;;;;;;6.85;3.33;;;;;;;;;;5082834;28;20048;-63
2023/09/15 05:02:22;;;;;;;5.10;2.80;;;;;;;;;;5088715;28;20040;-61
2023/09/15 05:04:50;;;;;;;5.15;2.65;;;;;;;;;;5085387;28;20483;-63
2023/09/15 05:07:18;;;;;;;5.20;2.65;;;;;;;;;;5080383;28;20090;-62
2023/09/15 05:09:45;;;;;;;7.15;2.80;;;;;;;;;;5092952;28;20050;-63
2023/09/15 05:12:12;;;;;;;8.82;2.75;;;;;;;;;;5085237;28;20622;-62
2023/09/15 05:14:41;;;;;;;4.18;2.85;;;;;;;;;;5089601;28;20048;-62
2023/09/15 05:17:08;;;;;;;6.32;2.60;;;;;;;;;;5083865;28;20052;-63
2023/09/15 05:19:36;;;;;;;5.72;3.22;;;;;;;;;;5085779;28;20047;-63
2023/09/15 05:22:04;;;;;;;4.55;2.95;;;;;;;;;;5095010;28;20047;-62
2023/09/15 05:24:32;;;;;;;4.13;2.33;;;;;;;;;;5087833;28;20052;-63
2023/09/15 05:26:59;;;;;;;7.38;2.67;;;;;;;;;;5092477;28;20515;-63
2023/09/15 05:29:26;;;;;;;5.88;2.80;;;;;;;;;;5093058;28;20057;-62
2023/09/15 05:31:55;;;;;;;5.15;2.88;;;;;;;;;;5082975;28;20055;-63
2023/09/15 05:34:22;;;;;;;5.97;2.70;;;;;;;;;;5098114;28;20545;-62
2023/09/15 05:36:49;;;;;;;4.57;3.13;;;;;;;;;;5072802;28;20066;-62
2023/09/15 05:39:16;;;;;;;4.65;2.85;;;;;;;;;;5099875;28;20493;-62
2023/09/15 05:41:44;;;;;;;7.40;2.78;;;;;;;;;;5093223;28;20051;-62
2023/09/15 05:44:11;;;;;;;9.90;2.95;;;;;;;;;;5097770;28;20061;-62
2023/09/15 05:46:38;;;;;;;4.95;2.90;;;;;;;;;;5089761;28;20143;-63
2023/09/15 05:49:07;;;;;;;6.95;3.08;;;;;;;;;;5088381;28;20044;-61
2023/09/15 05:51:34;;;;;;;6.35;3.00;;;;;;;;;;5078853;28;20102;-64
2023/09/15 05:54:02;;;;;;;13.57;4.85;;;;;;;;;;5081537;28;20044;-62
2023/09/15 05:56:29;;;;;;;8.65;4.63;;;;;;;;;;5083267;28;20421;-62
2023/09/15 05:58:58;;;;;;;8.25;4.53;;;;;;;;;;5088126;28;20487;-62
2023/09/15 06:01:25;;;;;;;8.90;3.40;;;;;;;;;;5080098;28;20110;-62
2023/09/15 06:03:52;;;;;;;7.15;3.08;;;;;;;;;;5087042;28;20105;-62
2023/09/15 06:06:21;;;;;;;10.52;2.83;;;;;;;;;;5085213;28;20407;-62
2023/09/15 06:08:48;;;;;;;7.50;3.00;;;;;;;;;;5083373;28;20075;-61
2023/09/15 06:11:15;;;;;;;4.32;2.70;;;;;;;;;;5080013;28;20044;-62
2023/09/15 06:13:43;;;;;;;7.93;3.03;;;;;;;;;;5087865;28;20566;-62
2023/09/15 06:16:11;;;;;;;10.18;3.17;;;;;;;;;;5083121;28;20048;-61
2023/09/15 06:18:38;;;;;;;7.10;3.22;;;;;;;;;;5086372;28;20416;-62
2023/09/15 06:21:05;;;;;;;8.55;2.90;;;;;;;;;;5085196;28;20047;-61
2023/09/15 06:23:34;;;;;;;10.35;3.08;;;;;;;;;;5083922;28;20036;-62
2023/09/15 06:26:01;;;;;;;8.98;2.92;;;;;;;;;;5078722;28;20131;-62
2023/09/15 06:28:28;;;;;;;6.82;3.17;;;;;;;;;;5088033;28;20048;-62
2023/09/15 06:30:55;;;;;;;8.10;3.10;;;;;;;;;;5079001;28;20483;-61
2023/09/15 06:33:23;;;;;;;6.47;2.88;;;;;;;;;;5083168;28;20441;-63
2023/09/15 06:35:50;;;;;;;6.53;2.90;;;;;;;;;;5088367;28;20048;-62
2023/09/15 06:38:17;;;;;;;7.70;2.75;;;;;;;;;;5088603;28;20052;-61
2023/09/15 06:40:46;;;;;;;6.40;2.83;;;;;;;;;;5081232;28;20046;-62
2023/09/15 06:43:14;;;;;;;7.40;3.03;;;;;;;;;;5087833;28;20568;-63
2023/09/15 06:45:41;;;;;;;6.03;2.85;;;;;;;;;;5084644;28;20821;-61
2023/09/15 06:48:08;;;;;;;4.88;2.70;;;;;;;;;;5084349;28;20062;-62
2023/09/15 06:50:35;;;;;;;8.23;3.22;;;;;;;;;;5084651;28;20048;-61
2023/09/15 06:53:03;;;;;;;8.18;2.90;;;;;;;;;;5085933;28;20044;-61
2023/09/15 06:55:30;;;;;;;7.65;2.97;;;;;;;;;;5079040;28;20123;-62
2023/09/15 06:57:59;;;;;;;11.00;2.95;;;;;;;;;;5084595;28;20073;-62
2023/09/15 07:00:26;;;;;;;9.40;2.85;;;;;;;;;;5085881;28;20507;-62
2023/09/15 07:02:54;;;;;;;8.68;2.88;;;;;;;;;;5079434;28;20052;-62
2023/09/15 07:05:21;;;;;;;5.75;2.75;;;;;;;;;;5078710;28;20495;-61
2023/09/15 07:07:48;;;;;;;4.72;2.55;;;;;;;;;;5082200;28;20403;-62
2023/09/15 07:10:18;;;;;;;5.00;2.42;;;;;;;;;;5080102;28;20052;-62
2023/09/15 07:12:45;;;;;;;8.60;3.42;;;;;;;;;;5076222;28;20675;-63
2023/09/15 07:15:13;;;;;;;8.40;2.70;;;;;;;;;;5087472;28;20040;-63
2023/09/15 07:17:42;;;;;;;6.13;2.78;;;;;;;;;;5085793;28;20494;-62
2023/09/15 07:20:09;;;;;;;5.25;2.45;;;;;;;;;;5085612;28;20076;-62
2023/09/15 07:22:37;;;;;;;8.90;3.28;;;;;;;;;;5081039;28;20044;-62
2023/09/15 07:25:04;;;;;;;5.13;2.70;;;;;;;;;;5069202;28;20040;-62
2023/09/15 07:27:31;;;;;;;5.20;2.63;;;;;;;;;;5069488;28;20059;-63
2023/09/15 07:29:58;;;;;;;6.60;2.80;;;;;;;;;;5087537;28;20139;-62
2023/09/15 07:32:27;;;;;;;7.05;2.40;;;;;;;;;;5084438;28;20055;-61
2023/09/15 07:34:54;;;;;;;5.95;2.88;;;;;;;;;;5082774;28;20415;-62
2023/09/15 07:37:22;;;;;;;8.73;2.70;;;;;;;;;;5084739;28;20040;-62
2023/09/15 07:39:49;;;;;;;8.30;2.80;;;;;;;;;;5084620;28;20052;-63
2023/09/15 07:42:16;;;;;;;7.22;2.35;;;;;;;;;;5084044;28;20048;-62
2023/09/15 07:44:44;;;;;;;6.03;2.90;;;;;;;;;;5084427;28;20079;-63
2023/09/15 07:47:14;;;;;;;8.18;2.97;;;;;;;;;;5086627;28;20062;-62
2023/09/15 07:49:42;;;;;;;7.22;2.90;;;;;;;;;;5085393;28;20052;-62
2023/09/15 07:52:10;;;;;;;4.93;2.75;;;;;;;;;;5079393;28;20052;-62
2023/09/15 07:54:37;;;;;;;4.97;2.72;;;;;;;;;;5084340;28;20046;-62
2023/09/15 07:57:06;;;;;;;6.13;2.67;;;;;;;;;;5083177;28;20070;-62
2023/09/15 07:59:33;;;;;;;3.65;2.38;;;;;;;;;;5083299;28;20052;-62
2023/09/15 08:02:00;;;;;;;7.88;2.67;;;;;;;;;;5076113;28;20044;-62
2023/09/15 08:04:28;;;;;;;5.45;2.70;;;;;;;;;;5085165;28;20047;-62
2023/09/15 08:06:57;;;;;;;6.03;2.30;;;;;;;;;;5086667;28;20080;-62
2023/09/15 08:09:24;;;;;;;6.43;2.42;;;;;;;;;;5084863;28;20048;-63
2023/09/15 08:11:51;;;;;;;4.38;2.28;;;;;;;;;;5089659;28;20049;-62
2023/09/15 08:14:18;;;;;;;6.40;2.60;;;;;;;;;;5071677;28;20058;-62
2023/09/15 08:16:46;;;;;;;4.60;2.63;;;;;;;;;;5085675;28;20056;-61
2023/09/15 08:19:13;;;;;;;5.03;2.38;;;;;;;;;;5087103;28;20051;-64
2023/09/15 08:21:40;;;;;;;5.57;2.38;;;;;;;;;;5091074;28;20052;-62
2023/09/15 08:24:09;;;;;;;9.38;2.50;;;;;;;;;;5083997;28;20055;-62
2023/09/15 08:26:37;;;;;;;9.95;2.30;;;;;;;;;;5094893;28;20043;-62
2023/09/15 08:29:04;;;;;;;5.75;2.40;;;;;;;;;;5089052;28;20048;-62
2023/09/15 08:31:31;;;;;;;5.28;2.08;;;;;;;;;;5082563;28;20052;-62
2023/09/15 08:33:59;;;;;;;4.03;1.88;;;;;;;;;;5084797;28;20070;-62
2023/09/15 08:36:27;;;;;;;6.03;2.60;;;;;;;;;;5085556;28;20060;-62
2023/09/15 08:38:55;;;;;;;11.73;2.35;;;;;;;;;;5081509;28;20056;-62
2023/09/15 08:41:26;;;;;;;6.30;2.03;;;;;;;;;;5091165;28;20491;-62
2023/09/15 08:43:53;;;;;;;7.85;2.50;;;;;;;;;;5083823;28;20048;-62
2023/09/15 08:46:21;;;;;;;7.05;2.00;;;;;;;;;;5077611;28;20079;-62
2023/09/15 08:48:50;;;;;;;3.30;1.80;;;;;;;;;;5086730;28;20372;-62
2023/09/15 08:51:17;;;;;;;4.35;1.80;;;;;;;;;;5088391;28;20044;-62
2023/09/15 08:53:44;;;;;;;6.32;2.10;;;;;;;;;;5076947;28;20391;-62
2023/09/15 08:56:12;;;;;;;7.50;2.05;;;;;;;;;;5088923;28;20040;-63
2023/09/15 08:58:41;;;;;;;5.10;1.90;;;;;;;;;;5086622;28;20065;-63
2023/09/15 09:01:09;;;;;;;3.97;2.00;;;;;;;;;;5089443;28;20052;-63
2023/09/15 09:03:37;;;;;;;6.32;1.80;;;;;;;;;;5085537;28;20079;-62
2023/09/15 09:06:04;;;;;;;5.55;1.98;;;;;;;;;;5074107;28;20402;-63
2023/09/15 09:08:33;;;;;;;5.88;1.85;;;;;;;;;;5086733;28;20514;-62
2023/09/15 09:11:00;;;;;;;5.07;2.30;;;;;;;;;;5085845;28;20051;-63
2023/09/15 09:13:28;;;;;;;2.92;1.70;;;;;;;;;;5089270;28;20462;-62
2023/09/15 09:15:56;;;;;;;5.35;1.60;;;;;;;;;;5088486;28;20055;-62
2023/09/15 09:18:24;;;;;;;4.55;1.73;;;;;;;;;;5070360;28;20048;-63
2023/09/15 09:20:52;;;;;;;7.35;2.28;;;;;;;;;;5082591;28;20139;-63
2023/09/15 09:23:19;;;;;;;4.07;2.05;;;;;;;;;;5087087;28;20076;-63
2023/09/15 09:25:47;;;;;;;4.55;2.05;;;;;;;;;;5088035;28;20055;-64
2023/09/15 09:28:14;;;;;;;3.80;1.90;;;;;;;;;;5079016;28;20045;-62
2023/09/15 09:30:42;;;;;;;3.25;1.70;;;;;;;;;;5081007;28;20044;-63
2023/09/15 09:33:12;;;;;;;4.32;1.75;;;;;;;;;;5087250;28;20060;-62
2023/09/15 09:35:39;;;;;;;4.15;1.90;;;;;;;;;;5088614;28;20408;-63
2023/09/15 09:38:06;;;;;;;5.00;1.88;;;;;;;;;;5077196;28;20515;-62
2023/09/15 09:40:34;;;;;;;8.20;2.70;;;;;;;;;;5084982;28;20052;-63
2023/09/15 09:43:01;;;;;;;7.78;2.40;;;;;;;;;;5089182;28;20052;-64
2023/09/15 09:45:30;;;;;;;7.13;2.80;;;;;;;;;;5082532;28;20044;-64
2023/09/15 09:47:57;;;;;;;7.65;3.40;;;;;;;;;;5083541;28;20510;-63
2023/09/15 09:50:26;;;;;;;7.18;2.95;;;;;;;;;;5088966;28;20051;-63
2023/09/15 09:52:54;;;;;;;9.70;3.00;;;;;;;;;;5086606;28;20060;-63
2023/09/15 09:55:21;;;;;;;7.15;2.63;;;;;;;;;;5086016;28;20040;-63
2023/09/15 09:57:49;;;;;;;5.50;2.95;;;;;;;;;;5067156;28;20047;-63
2023/09/15 10:00:20;;;;;;;8.73;3.22;;;;;;;;;;5086507;28;20067;-62
2023/09/15 10:02:47;;;;;;;5.90;3.10;;;;;;;;;;5082842;28;20048;-62
2023/09/15 10:05:15;;;;;;;4.40;2.55;;;;;;;;;;5081477;28;20048;-62
2023/09/15 10:07:45;;;;;;;6.15;3.47;;;;;;;;;;5087221;28;20059;-62
2023/09/15 10:10:13;;;;;;;7.05;3.03;;;;;;;;;;5086487;28;20055;-62
2023/09/15 10:12:40;;;;;;;6.15;3.10;;;;;;;;;;5085497;28;20487;-63
2023/09/15 10:15:08;;;;;;;6.07;2.60;;;;;;;;;;5067812;28;20044;-63
2023/09/15 10:17:36;;;;;;;8.20;3.00;;;;;;;;;;5087151;28;20048;-62
2023/09/15 10:20:03;;;;;;;7.82;3.05;;;;;;;;;;5082835;28;20044;-62
2023/09/15 10:22:31;;;;;;;6.55;2.78;;;;;;;;;;5087996;28;20063;-63
2023/09/15 10:25:00;;;;;;;5.70;3.00;;;;;;;;;;5076872;28;20483;-62
2023/09/15 10:27:29;;;;;;;6.90;3.10;;;;;;;;;;5083898;28;20052;-62
2023/09/15 10:30:02;;;;;;;6.43;3.05;;;;;;;;;;5080264;28;20545;-62
2023/09/15 10:32:35;;;;;;;6.32;2.90;;;;;;;;;;5085351;28;20055;-62
2023/09/15 10:35:03;;;;;;;8.35;3.17;;;;;;;;;;5087719;28;20135;-62
2023/09/15 10:37:30;;;;;;;6.70;3.22;;;;;;;;;;5084050;28;20499;-62
2023/09/15 10:40:00;;;;;;;4.95;2.75;;;;;;;;;;5069420;28;20062;-62
2023/09/15 10:42:27;;;;;;;6.65;3.70;;;;;;;;;;5069051;28;20580;-63
2023/09/15 10:44:55;;;;;;;7.20;3.40;;;;;;;;;;5084671;28;20052;-62
2023/09/15 10:47:22;;;;;;;7.30;3.10;;;;;;;;;;5080256;28;20055;-65
2023/09/15 10:49:51;;;;;;;7.28;3.40;;;;;;;;;;5085116;28;20083;-62
2023/09/15 10:52:18;;;;;;;8.15;3.50;;;;;;;;;;5077366;28;20052;-63
2023/09/15 10:54:46;;;;;;;10.70;3.33;;;;;;;;;;5082132;28;20048;-63
2023/09/15 10:57:16;;;;;;;5.63;3.13;;;;;;;;;;5083335;28;20055;-65
2023/09/15 10:59:44;;;;;;;6.80;3.53;;;;;;;;;;5081603;28;20048;-62
2023/09/15 11:02:11;;;;;;;6.65;3.15;;;;;;;;;;5086962;28;20525;-63
2023/09/15 11:04:38;;;;;;;8.20;3.50;;;;;;;;;;5080450;28;21255;-63
2023/09/15 11:07:06;;;;;;;7.18;3.40;;;;;;;;;;5077163;28;20051;-63
2023/09/15 11:09:33;;;;;;;8.45;3.58;;;;;;;;;;5070173;28;20514;-63
2023/09/15 11:12:03;;;;;;;7.78;3.33;;;;;;;;;;5088666;28;20082;-63
2023/09/15 11:14:31;;;;;;;6.93;3.42;;;;;;;;;;5084193;28;20056;-62
2023/09/15 11:16:59;;;;;;;5.03;3.03;;;;;;;;;;5082241;28;20050;-62
2023/09/15 11:19:30;;;;;;;5.97;2.90;;;;;;;;;;5083617;28;20054;-63
2023/09/15 11:21:57;;;;;;;6.20;3.13;;;;;;;;;;5087706;28;20568;-62
2023/09/15 11:24:24;;;;;;;5.80;3.40;;;;;;;;;;5080059;28;20044;-64
2023/09/15 11:26:52;;;;;;;6.05;3.22;;;;;;;;;;5071284;28;20048;-63
2023/09/15 11:29:25;;;;;;;6.68;3.40;;;;;;;;;;5078798;28;20492;-62
2023/09/15 11:31:54;;;;;;;4.40;2.80;;;;;;;;;;5079919;28;20063;-62
2023/09/15 11:34:21;;;;;;;5.57;3.40;;;;;;;;;;5084341;28;20044;-63
2023/09/15 11:36:49;;;;;;;8.85;3.83;;;;;;;;;;5082063;28;20052;-63
2023/09/15 11:39:16;;;;;;;6.57;3.50;;;;;;;;;;5081021;28;20048;-63
2023/09/15 11:41:52;;;;;;;6.63;3.60;;;;;;;;;;5092393;28;20066;-62
2023/09/15 11:44:19;;;;;;;5.88;3.50;;;;;;;;;;5088565;28;20043;-63
2023/09/15 11:46:47;;;;;;;8.85;3.40;;;;;;;;;;5080535;28;20507;-64
2023/09/15 11:49:16;;;;;;;6.20;3.35;;;;;;;;;;5085841;28;20403;-62
2023/09/15 11:51:44;;;;;;;8.07;3.40;;;;;;;;;;5086347;28;20849;-63
2023/09/15 11:54:11;;;;;;;7.75;3.20;;;;;;;;;;5089954;28;20562;-63
2023/09/15 11:56:39;;;;;;;8.43;2.92;;;;;;;;;;5083805;28;20060;-63
2023/09/15 11:59:07;;;;;;;6.78;3.15;;;;;;;;;;5086034;28;20048;-62
2023/09/15 12:01:34;;;;;;;7.15;3.42;;;;;;;;;;5088344;28;20126;-65
2023/09/15 12:04:03;;;;;;;8.65;3.47;;;;;;;;;;5067804;28;20420;-65
2023/09/15 12:06:32;;;;;;;5.97;2.75;;;;;;;;;;5084057;28;20133;-64
2023/09/15 12:08:59;;;;;;;8.35;2.75;;;;;;;;;;5090241;28;20479;-63
2023/09/15 12:11:26;;;;;;;6.70;2.72;;;;;;;;;;5087859;28;20491;-64
2023/09/15 12:13:55;;;;;;;5.68;2.97;;;;;;;;;;5089017;28;20048;-62
2023/09/15 12:16:26;;;;;;;5.90;2.60;;;;;;;;;;5090739;28;20147;-61
2023/09/15 12:18:53;;;;;;;5.28;2.88;;;;;;;;;;5076400;28;20101;-62
2023/09/15 12:21:24;;;;;;;6.30;3.00;;;;;;;;;;5085770;28;20056;-61
2023/09/15 12:23:54;;;;;;;5.03;3.05;;;;;;;;;;5093087;28;20108;-61
2023/09/15 12:26:21;;;;;;;7.72;3.55;;;;;;;;;;5087069;28;20569;-61
2023/09/15 12:28:48;;;;;;;4.15;2.72;;;;;;;;;;5086755;28;20476;-61
2023/09/15 12:31:17;;;;;;;7.13;2.90;;;;;;;;;;5089946;28;20388;-62
2023/09/15 12:33:44;;;;;;;4.75;2.83;;;;;;;;;;5083544;28;20572;-61
2023/09/15 12:36:12;;;;;;;4.47;2.95;;;;;;;;;;5079793;28;20052;-61
2023/09/15 12:38:40;;;;;;;6.75;2.85;;;;;;;;;;5080843;28;20055;-61
2023/09/15 12:41:09;;;;;;;6.00;2.80;;;;;;;;;;5084609;28;20471;-61
2023/09/15 12:43:36;;;;;;;6.65;2.55;;;;;;;;;;5089556;28;20471;-62
2023/09/15 12:46:04;;;;;;;7.22;2.83;;;;;;;;;;5088330;28;20040;-62
2023/09/15 12:48:31;;;;;;;6.20;2.65;;;;;;;;;;5090142;28;20043;-61
2023/09/15 12:50:58;;;;;;;6.20;2.60;;;;;;;;;;5090718;28;20044;-61
2023/09/15 12:53:26;;;;;;;5.85;2.72;;;;;;;;;;5065089;28;20051;-60
2023/09/15 12:55:54;;;;;;;4.07;2.38;;;;;;;;;;5088798;28;20056;-60
2023/09/15 12:58:24;;;;;;;5.65;2.53;;;;;;;;;;5086683;28;20130;-61
2023/09/15 13:00:51;;;;;;;3.67;2.10;;;;;;;;;;5088580;28;20131;-61
2023/09/15 13:03:19;;;;;;;5.78;2.55;;;;;;;;;;5091001;28;20055;-61
2023/09/15 13:05:46;;;;;;;4.22;2.13;;;;;;;;;;5089510;28;20058;-60
2023/09/15 13:08:13;;;;;;;4.30;1.90;;;;;;;;;;5087172;28;20051;-63
2023/09/15 13:10:40;;;;;;;4.75;2.03;;;;;;;;;;5096055;28;20128;-61
2023/09/15 13:13:11;;;;;;;6.55;2.10;;;;;;;;;;5076623;28;20440;-61
2023/09/15 13:15:40;;;;;;;6.03;1.92;;;;;;;;;;5088565;28;20044;-61
2023/09/15 13:18:07;;;;;;;4.75;1.85;;;;;;;;;;5089271;28;20092;-61
2023/09/15 13:20:35;;;;;;;4.38;1.90;;;;;;;;;;5082912;28;20040;-62
2023/09/15 13:23:02;;;;;;;2.97;1.85;;;;;;;;;;5086937;28;20796;-62
2023/09/15 13:25:29;;;;;;;5.82;2.00;;;;;;;;;;5083875;28;20040;-62
2023/09/15 13:27:57;;;;;;;4.55;1.67;;;;;;;;;;5086660;28;20063;-62
2023/09/15 13:30:25;;;;;;;7.60;2.38;;;;;;;;;;5080181;28;20382;-63
2023/09/15 13:32:53;;;;;;;4.72;2.03;;;;;;;;;;5083945;28;20048;-61
2023/09/15 13:35:21;;;;;;;5.45;2.15;;;;;;;;;;5072936;28;20054;-61
2023/09/15 13:37:48;;;;;;;4.43;2.00;;;;;;;;;;5089637;28;20047;-61
2023/09/15 13:40:15;;;;;;;4.38;2.15;;;;;;;;;;5091044;28;20494;-61
2023/09/15 13:42:43;;;;;;;5.18;2.10;;;;;;;;;;5086669;28;20410;-62
2023/09/15 13:45:12;;;;;;;5.90;1.80;;;;;;;;;;5077327;28;20041;-62
2023/09/15 13:47:39;;;;;;;4.80;1.98;;;;;;;;;;5088424;28;20112;-61
2023/09/15 13:50:10;;;;;;;4.43;1.85;;;;;;;;;;5085040;28;20052;-62
2023/09/15 13:52:37;;;;;;;3.47;1.63;;;;;;;;;;5072831;28;20051;-61
2023/09/15 13:55:05;;;;;;;4.65;2.00;;;;;;;;;;5085830;28;20085;-62
2023/09/15 13:57:33;;;;;;;3.70;2.00;;;;;;;;;;5069183;28;20079;-61
2023/09/15 14:00:00;;;;;;;4.03;1.90;;;;;;;;;;5085268;28;20107;-62
2023/09/15 14:02:28;;;;;;;5.32;1.73;;;;;;;;;;5088417;28;20048;-62
2023/09/15 14:04:56;;;;;;;3.10;1.88;;;;;;;;;;5083728;28;20478;-62
2023/09/15 14:07:24;;;;;;;5.70;1.80;;;;;;;;;;5083644;28;20048;-61
2023/09/15 14:09:52;;;;;;;3.15;1.88;;;;;;;;;;5080748;28;20051;-61
2023/09/15 14:12:19;;;;;;;6.43;2.30;;;;;;;;;;5083658;28;20091;-62
2023/09/15 14:14:47;;;;;;;4.00;1.80;;;;;;;;;;5076512;28;20044;-61
2023/09/15 14:17:14;;;;;;;4.10;1.70;;;;;;;;;;5082028;28;20052;-62
2023/09/15 14:19:41;;;;;;;3.88;1.73;;;;;;;;;;5077854;28;20062;-61
2023/09/15 14:22:08;;;;;;;3.00;1.63;;;;;;;;;;5075938;28;20050;-62
2023/09/15 14:24:37;;;;;;;4.40;1.60;;;;;;;;;;5077365;28;20529;-62
2023/09/15 14:27:04;;;;;;;4.45;1.88;;;;;;;;;;5083305;28;20044;-62
2023/09/15 14:29:32;;;;;;;3.78;1.75;;;;;;;;;;5075166;28;20538;-61
2023/09/15 14:32:01;;;;;;;4.30;1.60;;;;;;;;;;5076596;28;20066;-61
2023/09/15 14:34:28;;;;;;;5.85;2.00;;;;;;;;;;5075948;28;20043;-62
2023/09/15 14:36:55;;;;;;;3.60;1.60;;;;;;;;;;5078841;28;20052;-62
2023/09/15 14:39:22;;;;;;;4.40;1.60;;;;;;;;;;5079885;28;20040;-61
2023/09/15 14:41:52;;;;;;;3.50;1.98;;;;;;;;;;5080158;28;20045;-62
2023/09/15 14:44:20;;;;;;;3.90;2.08;;;;;;;;;;5065954;28;20139;-62
2023/09/15 14:46:47;;;;;;;3.30;1.77;;;;;;;;;;5078916;28;20427;-61